Time;durP1;ratioP1;P1;durP2;ratioP2;P2;SDS_P1;SDS_P2;PMS_P1;PMS_P2;Temp;Humidity;BMP_temperature;BMP_pressure;BME280_temperature;BME280_humidity;BME280_pressure;Samples;Min_cycle;Max_cycle;Signal;HPM_P1;HPM_P2
2021/11/15 00:01:50;;;;;;;11.53;8.40;;;9.40;99.60;;;;;;5022622;23;20061;-86
2021/11/15 00:07:21;;;;;;;15.00;8.85;;;9.40;99.70;;;;;;5187374;23;20051;-86
2021/11/15 00:09:47;;;;;;;13.80;8.70;;;9.40;99.70;;;;;;4972922;28;20407;-86
2021/11/15 00:12:13;;;;;;;12.65;8.00;;;9.40;99.70;;;;;;4973364;28;20410;-86
2021/11/15 00:14:39;;;;;;;14.20;8.15;;;9.40;99.70;;;;;;4972517;28;20046;-86
2021/11/15 00:17:08;;;;;;;12.45;7.85;;;9.40;99.70;;;;;;4972074;28;20077;-86
2021/11/15 00:20:30;;;;;;;12.98;8.82;;;9.40;99.60;;;;;;4973456;28;20039;-86
2021/11/15 00:23:11;;;;;;;14.15;8.80;;;9.40;99.30;;;;;;4898633;29;20115;-87
2021/11/15 00:25:37;;;;;;;11.93;8.35;;;9.30;99.50;;;;;;4898485;29;20087;-86
2021/11/15 00:28:03;;;;;;;12.25;7.93;;;9.40;99.60;;;;;;4898761;29;20091;-86
2021/11/15 00:30:29;;;;;;;13.52;8.15;;;9.40;99.60;;;;;;4897937;29;20080;-85
2021/11/15 00:33:03;;;;;;;14.32;8.52;;;9.40;99.60;;;;;;4898538;29;20092;-86
2021/11/15 00:35:32;;;;;;;14.73;9.02;;;9.40;99.60;;;;;;4899245;29;20131;-86
2021/11/15 00:38:16;;;;;;;13.32;8.60;;;9.30;99.60;;;;;;4897696;29;20048;-86
2021/11/15 00:40:57;;;;;;;15.23;9.48;;;9.40;99.50;;;;;;4898999;29;20099;-86
2021/11/15 00:43:38;;;;;;;14.70;9.38;;;9.30;99.50;;;;;;4896209;29;20123;-86
2021/11/15 00:46:13;;;;;;;17.20;10.48;;;9.30;99.50;;;;;;4887858;29;20056;-85
2021/11/15 00:48:38;;;;;;;16.38;9.80;;;9.30;99.50;;;;;;4898452;29;20083;-86
2021/11/15 00:51:13;;;;;;;13.40;9.32;;;9.30;99.50;;;;;;4898297;29;20452;-86
2021/11/15 00:53:45;;;;;;;16.55;10.43;;;9.30;99.50;;;;;;4942009;28;20403;-86
2021/11/15 00:56:25;;;;;;;16.10;9.65;;;9.30;99.60;;;;;;4972768;28;20046;-87
2021/11/15 00:58:54;;;;;;;17.70;10.43;;;9.30;99.60;;;;;;4972281;28;20039;-86
2021/11/15 01:01:28;;;;;;;17.83;11.52;;;9.30;99.60;;;;;;4972451;28;20061;-86
2021/11/15 01:04:06;;;;;;;19.08;11.77;;;9.30;99.70;;;;;;4973139;28;20077;-86
2021/11/15 01:06:38;;;;;;;18.95;11.88;;;9.30;99.70;;;;;;4972191;28;20078;-86
2021/11/15 01:09:04;;;;;;;20.95;13.02;;;9.30;99.70;;;;;;4971997;28;20058;-86
2021/11/15 01:11:33;;;;;;;22.77;13.13;;;9.30;99.70;;;;;;4958012;28;20047;-86
2021/11/15 01:14:02;;;;;;;22.23;12.35;;;9.30;99.70;;;;;;4971877;28;20042;-86
2021/11/15 01:16:27;;;;;;;28.05;15.45;;;9.30;99.70;;;;;;4972480;28;20050;-86
2021/11/15 01:18:53;;;;;;;30.80;17.90;;;9.20;99.70;;;;;;4971529;28;20566;-86
2021/11/15 01:21:24;;;;;;;24.75;14.52;;;9.30;99.60;;;;;;4972178;28;20042;-86
2021/11/15 01:23:54;;;;;;;24.98;14.93;;;9.30;99.60;;;;;;4972533;28;20097;-86
2021/11/15 01:26:19;;;;;;;28.48;15.68;;;9.30;99.70;;;;;;4972739;28;20050;-86
2021/11/15 01:28:49;;;;;;;27.58;15.40;;;9.20;99.60;;;;;;4975303;28;20051;-86
2021/11/15 01:31:16;;;;;;;30.10;17.10;;;9.20;99.70;;;;;;4974115;28;20038;-86
2021/11/15 01:33:41;;;;;;;28.17;17.00;;;9.20;99.70;;;;;;4975016;28;20054;-86
2021/11/15 01:36:10;;;;;;;37.72;21.17;;;9.20;99.60;;;;;;4975979;28;20422;-86
2021/11/15 01:38:39;;;;;;;29.85;17.40;;;9.20;99.60;;;;;;4976403;28;20364;-86
2021/11/15 01:41:06;;;;;;;28.92;16.60;;;9.20;99.50;;;;;;4975181;28;20055;-86
2021/11/15 01:43:56;;;;;;;29.08;17.40;;;9.20;99.50;;;;;;4975268;28;20073;-86
2021/11/15 01:46:24;;;;;;;30.67;17.55;;;9.20;99.50;;;;;;4960226;28;20146;-86
2021/11/15 01:48:53;;;;;;;29.27;16.88;;;9.20;99.60;;;;;;4975051;28;20086;-86
2021/11/15 01:51:18;;;;;;;29.00;17.25;;;9.20;99.60;;;;;;4974927;28;20038;-86
2021/11/15 01:53:44;;;;;;;28.98;17.80;;;9.20;99.70;;;;;;4975539;28;20039;-86
2021/11/15 01:56:11;;;;;;;32.33;18.55;;;9.20;99.70;;;;;;4974514;28;20097;-86
2021/11/15 01:58:37;;;;;;;31.73;17.88;;;9.20;99.70;;;;;;4964701;28;20047;-86
2021/11/15 02:01:06;;;;;;;28.65;17.55;;;9.20;99.70;;;;;;4970829;28;20042;-86
2021/11/15 02:03:32;;;;;;;31.98;18.45;;;9.20;99.70;;;;;;4975244;28;20039;-86
2021/11/15 02:06:00;;;;;;;32.42;18.30;;;9.20;99.70;;;;;;4974753;28;20109;-86
2021/11/15 02:08:31;;;;;;;32.88;17.33;;;9.10;99.60;;;;;;4975452;28;20383;-86
2021/11/15 02:10:57;;;;;;;32.50;18.30;;;9.10;99.60;;;;;;4973814;28;20043;-86
2021/11/15 02:13:24;;;;;;;29.45;17.77;;;9.10;99.60;;;;;;4975590;28;20399;-86
2021/11/15 02:15:51;;;;;;;29.83;18.10;;;9.10;99.70;;;;;;4975230;28;20050;-86
2021/11/15 02:18:24;;;;;;;31.63;17.75;;;9.10;99.60;;;;;;4974807;28;20491;-86
2021/11/15 02:20:54;;;;;;;31.77;17.55;;;9.10;99.70;;;;;;4974531;28;20039;-86
2021/11/15 02:23:24;;;;;;;32.42;18.20;;;9.10;99.70;;;;;;4974505;28;20050;-86
2021/11/15 02:26:07;;;;;;;31.23;17.35;;;9.10;99.70;;;;;;4975388;28;20101;-86
2021/11/15 02:28:36;;;;;;;29.95;17.40;;;9.10;99.90;;;;;;4975225;28;20058;-86
2021/11/15 02:31:17;;;;;;;28.02;16.42;;;9.10;99.80;;;;;;4973930;28;20039;-86
2021/11/15 02:33:53;;;;;;;28.92;16.95;;;9.10;99.80;;;;;;4974619;28;20043;-86
2021/11/15 02:36:24;;;;;;;29.63;16.33;;;9.10;99.80;;;;;;4973919;28;20043;-86
2021/11/15 02:38:56;;;;;;;29.40;16.33;;;9.10;99.80;;;;;;4973160;28;20043;-86
2021/11/15 02:41:37;;;;;;;29.00;16.83;;;9.10;99.70;;;;;;4974576;28;20053;-86
2021/11/15 02:44:11;;;;;;;28.48;16.60;;;9.10;99.70;;;;;;4971800;28;20047;-86
2021/11/15 02:46:43;;;;;;;28.63;16.75;;;9.10;99.80;;;;;;4969359;28;20043;-86
2021/11/15 02:49:08;;;;;;;26.40;15.57;;;9.10;99.70;;;;;;4973557;28;20047;-86
2021/11/15 02:51:40;;;;;;;26.23;15.38;;;9.10;99.70;;;;;;4973581;28;20046;-86
2021/11/15 02:54:11;;;;;;;27.85;15.55;;;9.10;99.60;;;;;;4974552;28;20047;-86
2021/11/15 02:56:43;;;;;;;28.30;15.57;;;9.10;99.60;;;;;;4974742;28;20054;-85
2021/11/15 02:59:12;;;;;;;28.27;16.85;;;9.00;99.60;;;;;;4973876;28;20050;-86
2021/11/15 03:01:50;;;;;;;27.50;15.80;;;9.00;99.60;;;;;;4971708;28;20154;-86
2021/11/15 03:04:24;;;;;;;28.42;15.93;;;9.10;99.60;;;;;;4974867;28;20046;-86
2021/11/15 03:06:50;;;;;;;29.98;16.35;;;9.00;99.60;;;;;;4974343;28;20503;-86
2021/11/15 03:09:16;;;;;;;27.15;16.05;;;9.00;99.60;;;;;;4994016;28;20050;-86
2021/11/15 03:11:42;;;;;;;25.05;15.35;;;9.00;99.60;;;;;;4987469;28;20053;-86
2021/11/15 03:14:11;;;;;;;29.23;16.25;;;9.00;99.70;;;;;;4996442;28;20120;-86
2021/11/15 03:16:36;;;;;;;29.50;15.82;;;9.00;99.70;;;;;;4996740;28;20045;-86
2021/11/15 03:19:02;;;;;;;29.38;15.82;;;9.00;99.70;;;;;;4996668;28;20045;-86
2021/11/15 03:21:34;;;;;;;30.80;16.60;;;9.00;99.70;;;;;;4995776;28;20049;-86
2021/11/15 03:24:03;;;;;;;28.02;15.90;;;9.00;99.70;;;;;;5012409;28;20057;-85
2021/11/15 03:26:32;;;;;;;29.88;16.38;;;9.00;99.70;;;;;;4995606;28;20046;-86
2021/11/15 03:29:28;;;;;;;30.23;15.80;;;9.00;99.70;;;;;;4996631;28;20612;-86
2021/11/15 03:32:03;;;;;;;27.13;15.75;;;9.00;99.60;;;;;;4995589;28;20520;-86
2021/11/15 03:34:39;;;;;;;32.30;16.20;;;9.00;99.60;;;;;;4996502;28;20065;-86
2021/11/15 03:37:05;;;;;;;29.25;15.23;;;9.00;99.70;;;;;;4996322;28;20045;-86
2021/11/15 03:39:31;;;;;;;29.30;16.00;;;9.00;99.70;;;;;;4996235;28;20056;-86
2021/11/15 03:41:56;;;;;;;29.65;16.63;;;8.90;99.60;;;;;;4994411;28;20054;-86
2021/11/15 03:44:22;;;;;;;32.15;15.90;;;8.90;99.60;;;;;;4996451;28;20038;-86
2021/11/15 03:46:47;;;;;;;25.92;15.52;;;8.90;99.50;;;;;;4995814;28;20046;-86
2021/11/15 03:49:15;;;;;;;29.75;15.85;;;8.90;99.50;;;;;;5011321;28;20038;-86
2021/11/15 03:51:43;;;;;;;28.58;15.95;;;8.90;99.60;;;;;;4996139;28;20397;-86
2021/11/15 03:54:08;;;;;;;29.17;15.90;;;8.90;99.70;;;;;;4996258;28;20366;-86
2021/11/15 03:56:34;;;;;;;27.75;15.10;;;8.90;99.60;;;;;;4995400;28;20088;-85
2021/11/15 03:59:15;;;;;;;30.58;15.90;;;8.80;99.60;;;;;;4995835;28;20046;-86
2021/11/15 04:01:44;;;;;;;29.33;16.08;;;8.80;99.70;;;;;;4995097;28;20041;-85
2021/11/15 04:04:18;;;;;;;29.50;15.48;;;8.80;99.70;;;;;;4995741;28;20456;-86
2021/11/15 04:06:51;;;;;;;32.08;16.23;;;8.90;99.80;;;;;;5012016;28;20053;-86
2021/11/15 04:09:29;;;;;;;30.88;16.58;;;8.80;99.70;;;;;;4994695;28;20038;-86
2021/11/15 04:11:55;;;;;;;30.17;15.60;;;8.80;99.60;;;;;;4995365;28;20053;-86
2021/11/15 04:14:20;;;;;;;30.08;15.25;;;8.80;99.60;;;;;;4995632;28;20449;-86
2021/11/15 04:16:59;;;;;;;27.48;14.90;;;8.80;99.60;;;;;;4995194;28;20129;-86
2021/11/15 04:19:37;;;;;;;32.50;16.48;;;8.80;99.70;;;;;;4995641;28;20095;-87
2021/11/15 04:22:19;;;;;;;30.52;15.23;;;8.80;99.70;;;;;;4995622;28;20057;-85
2021/11/15 04:24:54;;;;;;;29.73;15.82;;;8.80;99.70;;;;;;4995195;28;20049;-86
2021/11/15 04:27:20;;;;;;;31.88;15.68;;;8.70;99.70;;;;;;4995442;28;20038;-86
2021/11/15 04:29:45;;;;;;;30.60;15.05;;;8.70;99.70;;;;;;4994926;28;20048;-85
2021/11/15 04:32:26;;;;;;;32.58;16.65;;;8.70;99.90;;;;;;4995776;28;20038;-85
2021/11/15 04:34:52;;;;;;;31.80;15.20;;;8.70;99.80;;;;;;4995693;28;20050;-87
2021/11/15 04:37:25;;;;;;;30.83;15.85;;;8.70;99.80;;;;;;4994177;28;20049;-86
2021/11/15 04:39:57;;;;;;;32.85;16.65;;;8.70;99.80;;;;;;4995922;28;20513;-86
2021/11/15 04:42:23;;;;;;;30.23;14.85;;;8.70;99.80;;;;;;4987351;28;20045;-85
2021/11/15 04:44:49;;;;;;;30.58;15.95;;;8.70;99.80;;;;;;4993314;28;20045;-87
2021/11/15 04:47:14;;;;;;;28.45;14.68;;;8.70;99.80;;;;;;4995312;28;20136;-87
2021/11/15 04:49:49;;;;;;;27.60;14.93;;;8.70;99.80;;;;;;4995418;28;20073;-86
2021/11/15 04:54:43;;;;;;;28.13;14.98;;;8.70;99.80;;;;;;5031359;28;20054;-86
2021/11/15 04:57:09;;;;;;;32.45;15.23;;;8.60;99.80;;;;;;5015093;28;20065;-85
2021/11/15 04:59:35;;;;;;;29.85;15.00;;;8.60;99.80;;;;;;5013742;28;20045;-86
2021/11/15 05:02:01;;;;;;;32.42;15.02;;;8.60;99.80;;;;;;5016078;28;20099;-86
2021/11/15 05:04:26;;;;;;;27.70;14.23;;;8.60;99.90;;;;;;5018567;28;20038;-86
2021/11/15 05:06:52;;;;;;;35.47;15.57;;;8.60;99.90;;;;;;5018201;28;20041;-85
2021/11/15 05:09:18;;;;;;;31.25;15.10;;;8.60;99.90;;;;;;5017941;28;20128;-86
2021/11/15 05:11:43;;;;;;;30.40;15.85;;;8.60;99.80;;;;;;5017634;28;20120;-84
2021/11/15 05:14:09;;;;;;;28.20;14.77;;;8.60;99.90;;;;;;5018324;28;20045;-85
2021/11/15 05:16:35;;;;;;;29.27;14.23;;;8.60;99.80;;;;;;5018983;28;20042;-85
2021/11/15 05:19:00;;;;;;;29.58;15.80;;;8.60;99.80;;;;;;5018147;28;20045;-86
2021/11/15 05:21:27;;;;;;;29.30;15.05;;;8.60;99.80;;;;;;5018645;28;20119;-87
2021/11/15 05:23:54;;;;;;;35.33;15.77;;;8.60;99.80;;;;;;5018244;28;20481;-85
2021/11/15 05:26:21;;;;;;;30.17;15.57;;;8.60;99.80;;;;;;5017563;28;20160;-86
2021/11/15 05:28:51;;;;;;;31.50;15.88;;;8.60;99.80;;;;;;5018597;28;20052;-86
2021/11/15 05:31:17;;;;;;;29.83;15.35;;;8.60;99.80;;;;;;5018223;28;20128;-86
2021/11/15 05:33:43;;;;;;;29.90;15.50;;;8.60;99.80;;;;;;5017802;28;20489;-85
2021/11/15 05:36:09;;;;;;;33.72;16.60;;;8.60;99.70;;;;;;5016710;28;20049;-86
2021/11/15 05:38:34;;;;;;;30.02;15.68;;;8.60;99.70;;;;;;5018195;28;20099;-86
2021/11/15 05:41:00;;;;;;;31.65;15.48;;;8.60;99.70;;;;;;5016976;28;20095;-86
2021/11/15 05:43:26;;;;;;;31.55;15.95;;;8.60;99.70;;;;;;5017975;28;20452;-86
2021/11/15 05:45:52;;;;;;;33.67;15.88;;;8.60;99.80;;;;;;5017897;28;20074;-86
2021/11/15 05:48:19;;;;;;;30.27;15.60;;;8.60;99.80;;;;;;5017821;28;20050;-86
2021/11/15 05:51:36;;;;;;;32.08;15.23;;;8.60;99.80;;;;;;5018315;28;20038;-86
2021/11/15 05:54:02;;;;;;;33.20;16.35;;;8.50;99.70;;;;;;5000683;28;20065;-86
2021/11/15 05:56:28;;;;;;;34.25;16.92;;;8.50;99.80;;;;;;4995006;28;20449;-86
2021/11/15 05:58:54;;;;;;;35.63;16.55;;;8.50;99.80;;;;;;4994859;28;20073;-86
2021/11/15 06:01:22;;;;;;;33.92;16.30;;;8.50;99.80;;;;;;4992894;28;20401;-86
2021/11/15 06:03:57;;;;;;;32.92;15.70;;;8.40;99.80;;;;;;4994082;28;20428;-86
2021/11/15 06:06:32;;;;;;;33.08;16.55;;;8.40;99.80;;;;;;4994838;28;20061;-86
2021/11/15 06:08:58;;;;;;;30.20;15.52;;;8.40;99.80;;;;;;4994434;28;20445;-86
2021/11/15 06:11:24;;;;;;;33.95;16.38;;;8.40;99.80;;;;;;4994146;28;20042;-86
2021/11/15 06:13:49;;;;;;;33.72;16.83;;;8.40;99.80;;;;;;4995138;28;20085;-87
2021/11/15 06:16:18;;;;;;;34.20;16.52;;;8.40;99.90;;;;;;4987938;28;20479;-86
2021/11/15 06:18:49;;;;;;;37.08;17.27;;;8.40;99.90;;;;;;4994142;28;20046;-86
2021/11/15 06:21:15;;;;;;;37.38;17.85;;;8.40;99.90;;;;;;4995107;28;20042;-86
2021/11/15 06:23:41;;;;;;;35.50;17.05;;;8.40;99.80;;;;;;4994182;28;20125;-86
2021/11/15 06:26:07;;;;;;;35.97;16.60;;;8.40;99.80;;;;;;4993592;28;20391;-87
2021/11/15 06:28:35;;;;;;;36.60;17.17;;;8.40;99.80;;;;;;4984563;28;20053;-86
2021/11/15 06:31:11;;;;;;;34.17;16.27;;;8.40;99.90;;;;;;4992429;28;20084;-85
2021/11/15 06:33:37;;;;;;;31.20;16.08;;;8.40;99.90;;;;;;4994309;28;20046;-85
2021/11/15 06:36:03;;;;;;;35.63;16.55;;;8.40;99.90;;;;;;4993965;28;20104;-85
2021/11/15 06:38:38;;;;;;;32.47;15.63;;;8.40;99.80;;;;;;4993272;28;20127;-85
2021/11/15 06:41:03;;;;;;;31.85;15.63;;;8.40;99.80;;;;;;4994741;28;20138;-85
2021/11/15 06:43:33;;;;;;;35.83;16.20;;;8.30;99.80;;;;;;4993505;28;20185;-86
2021/11/15 06:46:05;;;;;;;36.75;16.27;;;8.30;99.80;;;;;;4991330;28;20073;-85
2021/11/15 06:48:41;;;;;;;30.45;15.20;;;8.30;99.90;;;;;;4993681;28;20895;-87
2021/11/15 06:51:25;;;;;;;31.73;15.13;;;8.30;99.70;;;;;;4991622;28;20105;-88
2021/11/15 06:54:00;;;;;;;35.80;16.23;;;8.30;99.70;;;;;;4992950;28;20539;-88
2021/11/15 06:56:32;;;;;;;31.70;15.80;;;8.30;99.70;;;;;;4984897;28;20045;-87
2021/11/15 06:59:01;;;;;;;35.92;15.88;;;8.30;99.70;;;;;;4991063;28;20502;-87
2021/11/15 07:01:36;;;;;;;38.05;15.32;;;8.20;99.70;;;;;;4993909;28;20050;-87
2021/11/15 07:04:10;;;;;;;30.02;14.98;;;8.30;99.90;;;;;;4994396;28;20429;-87
2021/11/15 07:06:40;;;;;;;34.45;15.82;;;8.20;99.90;;;;;;4989841;28;20108;-86
2021/11/15 07:09:18;;;;;;;30.92;14.30;;;8.20;99.90;;;;;;4991776;28;20137;-87
2021/11/15 07:11:56;;;;;;;31.15;15.57;;;8.20;99.80;;;;;;4990132;28;20092;-88
2021/11/15 07:14:28;;;;;;;31.85;14.82;;;8.20;99.80;;;;;;4991464;28;20030;-87
2021/11/15 07:17:00;;;;;;;32.17;15.43;;;8.20;99.90;;;;;;4986343;28;20042;-87
2021/11/15 07:19:37;;;;;;;32.40;15.65;;;8.20;99.90;;;;;;4988277;28;20046;-87
2021/11/15 07:22:05;;;;;;;33.55;15.93;;;8.20;99.90;;;;;;4987729;28;20117;-87
2021/11/15 07:24:31;;;;;;;30.48;15.50;;;8.20;99.90;;;;;;4993203;28;20085;-87
2021/11/15 07:26:57;;;;;;;30.05;14.68;;;8.20;99.90;;;;;;4992370;28;20058;-87
2021/11/15 07:29:28;;;;;;;32.53;15.05;;;8.20;99.90;;;;;;4993634;28;20128;-87
2021/11/15 07:31:54;;;;;;;33.53;15.15;;;8.20;99.90;;;;;;4992850;28;20553;-87
2021/11/15 07:34:27;;;;;;;35.00;14.57;;;8.20;99.90;;;;;;4984681;28;20126;-88
2021/11/15 07:37:07;;;;;;;30.98;14.68;;;8.20;99.90;;;;;;4993035;28;20490;-86
2021/11/15 07:39:43;;;;;;;34.15;14.85;;;8.20;99.90;;;;;;4988403;28;20046;-86
2021/11/15 07:42:10;;;;;;;31.50;14.85;;;8.20;99.90;;;;;;4993384;28;20038;-87
2021/11/15 07:44:36;;;;;;;31.98;15.00;;;8.20;99.90;;;;;;4993562;28;20046;-86
2021/11/15 07:47:03;;;;;;;31.75;14.13;;;8.20;99.90;;;;;;4988588;28;20076;-86
2021/11/15 07:49:29;;;;;;;32.60;14.38;;;8.20;99.90;;;;;;4988982;28;20034;-86
2021/11/15 07:51:55;;;;;;;32.10;13.77;;;8.20;99.90;;;;;;4990091;28;20089;-86
2021/11/15 07:54:20;;;;;;;31.65;14.05;;;8.20;99.90;;;;;;4984867;28;20050;-87
2021/11/15 07:56:46;;;;;;;31.45;13.55;;;8.20;99.90;;;;;;4993653;28;20049;-84
2021/11/15 07:59:12;;;;;;;31.85;13.82;;;8.20;99.90;;;;;;4992557;28;20069;-86
2021/11/15 08:01:49;;;;;;;28.55;13.10;;;8.20;99.90;;;;;;4989328;28;20047;-86
2021/11/15 08:04:26;;;;;;;32.72;13.77;;;8.20;99.90;;;;;;4973743;28;20062;-86
2021/11/15 08:06:53;;;;;;;29.45;12.95;;;8.20;99.90;;;;;;4991918;28;20046;-88
2021/11/15 08:10:04;;;;;;;27.10;13.00;;;8.20;99.90;;;;;;5038322;23;20053;-88
2021/11/15 08:12:40;;;;;;;30.33;12.60;;;8.20;99.70;;;;;;4909092;29;20051;-87
2021/11/15 08:15:15;;;;;;;26.98;12.18;;;8.10;99.80;;;;;;4930074;29;20052;-89
2021/11/15 08:17:55;;;;;;;28.17;12.15;;;8.20;99.90;;;;;;4932318;29;20048;-88
2021/11/15 08:20:35;;;;;;;27.60;11.88;;;8.20;99.90;;;;;;4915403;29;20048;-88
2021/11/15 08:23:05;;;;;;;25.77;11.90;;;8.20;99.90;;;;;;4916596;29;20172;-87
2021/11/15 08:25:56;;;;;;;24.55;11.10;;;8.20;99.90;;;;;;4918936;29;20043;-86
2021/11/15 08:28:25;;;;;;;26.15;11.88;;;8.20;99.90;;;;;;5013165;28;20060;-88
2021/11/15 08:30:51;;;;;;;27.92;11.85;;;8.20;99.90;;;;;;5011017;28;20432;-88
2021/11/15 08:33:17;;;;;;;28.13;12.32;;;8.20;99.90;;;;;;5014908;28;20045;-87
2021/11/15 08:35:43;;;;;;;24.63;11.32;;;8.20;99.90;;;;;;5014613;28;20516;-85
2021/11/15 08:38:15;;;;;;;27.33;12.48;;;8.10;99.80;;;;;;5014261;28;20041;-86
2021/11/15 08:40:42;;;;;;;25.17;10.95;;;8.20;99.90;;;;;;5019342;28;20045;-85
2021/11/15 08:43:08;;;;;;;26.23;11.75;;;8.10;99.80;;;;;;5018448;28;20243;-85
2021/11/15 08:45:35;;;;;;;25.40;11.45;;;8.10;99.70;;;;;;5017474;28;20159;-85
2021/11/15 08:48:02;;;;;;;23.83;10.95;;;8.10;99.80;;;;;;5017919;28;20057;-86
2021/11/15 08:50:28;;;;;;;21.98;10.35;;;8.10;99.80;;;;;;5017203;28;20476;-85
2021/11/15 08:52:54;;;;;;;24.20;10.90;;;8.10;99.80;;;;;;5018852;28;20073;-85
2021/11/15 08:55:20;;;;;;;24.33;10.75;;;8.10;99.80;;;;;;5018787;28;20127;-86
2021/11/15 08:57:45;;;;;;;24.77;11.20;;;8.10;99.80;;;;;;5018690;28;20045;-85
2021/11/15 09:00:11;;;;;;;24.23;10.55;;;8.10;99.80;;;;;;5018252;28;20046;-86
2021/11/15 09:02:37;;;;;;;22.05;10.77;;;8.10;99.80;;;;;;5006599;28;20041;-86
2021/11/15 09:05:17;;;;;;;22.90;11.02;;;8.10;99.80;;;;;;5017417;28;20139;-84
2021/11/15 09:07:44;;;;;;;23.95;10.45;;;8.10;99.80;;;;;;5015375;28;20125;-83
2021/11/15 09:10:11;;;;;;;22.58;10.57;;;8.10;99.80;;;;;;5009833;28;20507;-84
2021/11/15 09:12:38;;;;;;;24.02;10.10;;;8.10;99.90;;;;;;5017623;28;20176;-84
2021/11/15 09:15:06;;;;;;;21.20;10.18;;;8.10;99.90;;;;;;5016356;28;20042;-84
2021/11/15 09:17:31;;;;;;;20.42;10.30;;;8.10;99.90;;;;;;5018460;28;20045;-84
2021/11/15 09:19:57;;;;;;;22.05;9.88;;;8.00;99.80;;;;;;5015989;28;20497;-84
2021/11/15 09:22:32;;;;;;;20.27;9.73;;;8.00;99.80;;;;;;5018280;28;20057;-84
2021/11/15 09:24:58;;;;;;;21.67;9.63;;;8.00;99.90;;;;;;5017232;28;20436;-84
2021/11/15 09:27:26;;;;;;;24.33;10.57;;;8.00;99.90;;;;;;5016059;28;20736;-83
2021/11/15 09:29:53;;;;;;;21.08;9.85;;;8.00;99.90;;;;;;5000995;28;20045;-84
2021/11/15 09:32:20;;;;;;;22.27;10.20;;;8.00;99.90;;;;;;5015519;28;20049;-85
2021/11/15 09:34:47;;;;;;;21.77;10.02;;;8.00;99.90;;;;;;5016877;28;20092;-85
2021/11/15 09:37:14;;;;;;;21.33;9.70;;;8.00;99.90;;;;;;5018248;28;20038;-85
2021/11/15 09:39:45;;;;;;;20.60;9.55;;;8.00;99.90;;;;;;5016389;28;20509;-85
2021/11/15 09:42:30;;;;;;;19.15;9.60;;;8.10;99.90;;;;;;5013200;28;20061;-85
2021/11/15 09:44:56;;;;;;;20.55;10.15;;;8.10;99.90;;;;;;5005374;28;20049;-85
2021/11/15 09:47:49;;;;;;;23.13;9.90;;;8.10;99.90;;;;;;5016663;28;20448;-85
2021/11/15 09:50:17;;;;;;;19.95;9.88;;;8.10;99.90;;;;;;4953924;28;20405;-84
2021/11/15 09:52:58;;;;;;;21.92;10.75;;;8.00;99.90;;;;;;5018495;28;20140;-85
2021/11/15 09:55:24;;;;;;;23.77;10.32;;;8.00;99.90;;;;;;5015556;28;20037;-85
2021/11/15 09:57:51;;;;;;;22.40;10.38;;;8.10;99.90;;;;;;5017981;28;20421;-85
2021/11/15 10:00:38;;;;;;;20.02;9.60;;;8.10;99.90;;;;;;5017205;28;20044;-85
2021/11/15 10:03:29;;;;;;;22.52;9.90;;;8.10;99.90;;;;;;4996314;28;20049;-85
2021/11/15 10:05:58;;;;;;;18.35;9.18;;;8.00;99.90;;;;;;5016831;28;20115;-85
2021/11/15 10:08:40;;;;;;;23.38;9.90;;;8.00;99.90;;;;;;5017546;28;20091;-85
2021/11/15 10:11:08;;;;;;;18.55;9.15;;;8.10;99.90;;;;;;5017904;28;20058;-85
2021/11/15 10:13:39;;;;;;;18.73;8.85;;;8.00;99.80;;;;;;5017387;28;20096;-84
2021/11/15 10:16:23;;;;;;;17.80;9.25;;;8.10;99.80;;;;;;4997489;28;20046;-83
2021/11/15 10:19:00;;;;;;;17.10;8.00;;;8.10;99.80;;;;;;5016385;28;20054;-85
2021/11/15 10:21:51;;;;;;;18.95;8.52;;;8.10;99.90;;;;;;5015903;28;20037;-85
2021/11/15 10:24:34;;;;;;;21.77;8.63;;;8.00;99.80;;;;;;5005568;28;20144;-85
2021/11/15 10:27:19;;;;;;;17.67;8.55;;;8.10;99.80;;;;;;5015803;28;20037;-84
2021/11/15 10:29:54;;;;;;;15.90;8.25;;;8.10;99.70;;;;;;5002775;28;20046;-86
2021/11/15 10:32:38;;;;;;;16.77;8.25;;;8.10;99.80;;;;;;5014154;28;20040;-86
2021/11/15 10:35:06;;;;;;;;;;;8.00;99.80;;;;;;5016883;28;20081;-85
2021/11/15 10:37:38;;;;;;;16.65;7.53;;;8.00;99.50;;;;;;5008814;28;19967;-85
2021/11/15 10:40:06;;;;;;;16.60;7.97;;;8.00;99.90;;;;;;5014708;28;20045;-86
2021/11/15 10:42:48;;;;;;;16.70;7.68;;;8.00;99.80;;;;;;5014036;28;20124;-86
2021/11/15 10:45:25;;;;;;;17.30;8.27;;;8.00;99.70;;;;;;5012679;28;20060;-86
2021/11/15 10:47:50;;;;;;;17.13;8.00;;;8.00;99.70;;;;;;5012658;28;20049;-86
2021/11/15 10:50:25;;;;;;;17.58;8.02;;;8.00;99.80;;;;;;5012613;28;20492;-85
2021/11/15 10:53:21;;;;;;;17.35;7.60;;;8.00;99.80;;;;;;5011952;28;20057;-85
2021/11/15 10:56:18;;;;;;;15.70;7.70;;;8.00;99.70;;;;;;5003972;28;20049;-85
2021/11/15 10:58:52;;;;;;;17.17;7.70;;;8.00;99.70;;;;;;5011483;28;20560;-85
2021/11/15 11:01:28;;;;;;;;;;;8.00;99.90;;;;;;5012102;28;20103;-84
2021/11/15 11:04:09;;;;;;;16.63;8.02;;;8.00;99.50;;;;;;5011599;28;19925;-86
2021/11/15 11:06:58;;;;;;;17.58;8.45;;;8.00;99.90;;;;;;5014002;28;20041;-86
2021/11/15 11:09:38;;;;;;;17.60;8.10;;;8.00;99.80;;;;;;5009015;28;20501;-90
2021/11/15 11:12:22;;;;;;;20.65;8.35;;;8.00;99.90;;;;;;5006610;28;20060;-86
2021/11/15 11:14:50;;;;;;;18.45;8.48;;;8.00;99.90;;;;;;5000361;28;20196;-84
2021/11/15 11:17:16;;;;;;;22.05;9.52;;;8.00;99.90;;;;;;5015323;28;20072;-84
2021/11/15 11:20:28;;;;;;;18.42;8.93;;;8.00;99.80;;;;;;5015914;28;20072;-85
2021/11/15 11:25:55;;;;;;;19.55;8.80;;;8.00;99.80;;;;;;5014825;28;20151;-85
2021/11/15 11:28:33;;;;;;;19.83;9.63;;;8.00;99.90;;;;;;5016270;28;20406;-85
2021/11/15 11:31:01;;;;;;;29.42;12.77;;;8.00;99.90;;;;;;5016112;28;20045;-85
2021/11/15 11:33:30;;;;;;;39.80;16.55;;;8.00;99.80;;;;;;5015836;28;20033;-84
2021/11/15 11:35:57;;;;;;;24.52;11.48;;;8.00;99.60;;;;;;5014736;28;20057;-85
2021/11/15 11:38:23;;;;;;;23.70;11.13;;;8.00;99.60;;;;;;5006715;28;20052;-85
2021/11/15 11:40:50;;;;;;;28.83;11.80;;;8.00;99.70;;;;;;5011013;28;20042;-85
2021/11/15 11:43:16;;;;;;;29.60;11.95;;;8.00;99.70;;;;;;5010436;28;20038;-86
2021/11/15 11:45:45;;;;;;;31.15;13.38;;;8.00;99.70;;;;;;5015587;28;20037;-86
2021/11/15 11:48:15;;;;;;;34.50;13.32;;;8.00;99.80;;;;;;5016092;28;20041;-86
2021/11/15 11:50:49;;;;;;;34.42;13.50;;;8.00;99.80;;;;;;4998729;28;20624;-86
2021/11/15 11:53:29;;;;;;;34.00;13.60;;;8.00;99.80;;;;;;5008557;28;20048;-86
2021/11/15 11:55:56;;;;;;;34.33;14.55;;;8.00;99.80;;;;;;5015917;28;20507;-85
2021/11/15 11:58:26;;;;;;;37.15;15.93;;;8.00;99.90;;;;;;5016229;28;20042;-85
2021/11/15 12:00:53;;;;;;;40.78;16.42;;;8.00;99.80;;;;;;5014732;28;20568;-85
2021/11/15 12:03:22;;;;;;;40.03;16.17;;;8.00;99.80;;;;;;5015467;28;20057;-86
2021/11/15 12:05:50;;;;;;;35.70;16.05;;;8.00;99.80;;;;;;5015689;28;20041;-86
2021/11/15 12:08:16;;;;;;;42.53;16.42;;;8.00;99.80;;;;;;5013691;28;20564;-87
2021/11/15 12:10:46;;;;;;;42.33;16.95;;;8.00;99.80;;;;;;4997833;28;20057;-86
2021/11/15 12:13:13;;;;;;;41.75;17.38;;;8.00;99.80;;;;;;4993157;28;20409;-84
2021/11/15 12:15:39;;;;;;;43.03;17.73;;;8.00;99.70;;;;;;4991025;28;20053;-83
2021/11/15 12:18:26;;;;;;;46.47;18.73;;;8.00;99.70;;;;;;4993062;28;20050;-85
2021/11/15 12:21:02;;;;;;;44.63;19.48;;;8.00;99.70;;;;;;4992060;28;20038;-85
2021/11/15 12:23:30;;;;;;;41.08;18.50;;;8.00;99.80;;;;;;4992612;28;20046;-88
2021/11/15 12:26:17;;;;;;;47.58;19.27;;;8.00;99.80;;;;;;4992392;28;20038;-85
2021/11/15 12:28:50;;;;;;;50.03;20.80;;;7.90;99.70;;;;;;4998151;28;20051;-84
2021/11/15 12:31:36;;;;;;;49.97;21.13;;;7.90;99.80;;;;;;4995662;28;20378;-84
2021/11/15 12:34:06;;;;;;;50.92;20.00;;;7.90;99.80;;;;;;5005459;28;20046;-84
2021/11/15 12:36:39;;;;;;;46.15;19.77;;;7.90;99.80;;;;;;4991532;28;20073;-84
2021/11/15 12:39:13;;;;;;;52.95;21.23;;;7.90;99.80;;;;;;4992424;28;20461;-84
2021/11/15 12:41:41;;;;;;;51.95;20.88;;;7.90;99.80;;;;;;4992534;28;20137;-84
2021/11/15 12:44:24;;;;;;;52.88;21.77;;;7.90;99.80;;;;;;4987681;28;20058;-84
2021/11/15 12:46:59;;;;;;;;;;;8.00;99.90;;;;;;4992182;28;20038;-85
2021/11/15 12:49:34;;;;;;;50.80;21.63;;;7.90;99.40;;;;;;4973089;28;19922;-85
2021/11/15 12:52:03;;;;;;;59.20;23.45;;;7.90;99.90;;;;;;4973302;28;20042;-85
2021/11/15 12:54:30;;;;;;;59.70;24.13;;;7.90;99.90;;;;;;4981913;28;20181;-85
2021/11/15 12:56:58;;;;;;;56.97;23.17;;;7.90;99.80;;;;;;4991658;28;20069;-85
2021/11/15 12:59:34;;;;;;;61.63;23.65;;;7.90;99.80;;;;;;4992217;28;20387;-86
2021/11/15 13:02:15;;;;;;;58.30;23.70;;;7.90;99.80;;;;;;4992395;28;20050;-85
2021/11/15 13:04:41;;;;;;;62.80;26.63;;;7.90;99.80;;;;;;4991652;28;20045;-85
2021/11/15 13:07:11;;;;;;;57.30;24.40;;;7.90;99.70;;;;;;4996779;23;20054;-85
2021/11/15 13:09:38;;;;;;;54.42;23.50;;;7.90;99.70;;;;;;4988305;28;20042;-85
2021/11/15 13:12:04;;;;;;;57.53;24.63;;;7.90;99.70;;;;;;5005527;28;20056;-86